createdAt,value
2023-05-13T00:00:49.454Z, 34.91
2023-05-13T00:01:50.134Z, 34.90
2023-05-13T00:02:49.504Z, 34.83
2023-05-13T00:03:49.531Z, 34.84
2023-05-13T00:04:49.428Z, 34.88
2023-05-13T00:05:49.456Z, 34.89
2023-05-13T00:06:49.457Z, 34.90
2023-05-13T00:07:49.562Z, 34.89
2023-05-13T00:08:49.519Z, 34.86
2023-05-13T00:09:49.562Z, 34.84
2023-05-13T00:10:49.522Z, 34.83
2023-05-13T00:11:49.538Z, 34.84
2023-05-13T00:12:49.518Z, 34.81
2023-05-13T00:13:49.543Z, 34.76
2023-05-13T00:14:49.613Z, 34.79
2023-05-13T00:15:49.618Z, 34.80
2023-05-13T00:16:49.681Z, 34.82
2023-05-13T00:17:49.688Z, 34.81
2023-05-13T00:18:49.648Z, 34.79
2023-05-13T00:19:49.678Z, 34.78
2023-05-13T00:20:49.656Z, 34.78
2023-05-13T00:21:49.657Z, 34.76
2023-05-13T00:22:49.652Z, 34.74
2023-05-13T00:23:49.667Z, 34.76
2023-05-13T00:24:49.756Z, 34.76
2023-05-13T00:25:49.727Z, 34.73
2023-05-13T00:26:49.716Z, 34.74
2023-05-13T00:27:49.727Z, 34.70
2023-05-13T00:28:49.753Z, 34.68
2023-05-13T00:29:49.749Z, 34.70
2023-05-13T00:30:49.747Z, 34.68
2023-05-13T00:31:49.827Z, 34.68
2023-05-13T00:32:49.851Z, 34.65
2023-05-13T00:33:49.791Z, 34.65
2023-05-13T00:34:49.795Z, 34.65
2023-05-13T00:35:49.878Z, 34.65
2023-05-13T00:36:49.860Z, 34.64
2023-05-13T00:37:49.895Z, 34.67
2023-05-13T00:38:49.883Z, 34.65
2023-05-13T00:39:49.914Z, 34.66
2023-05-13T00:40:49.894Z, 34.65
2023-05-13T00:41:49.888Z, 34.60
2023-05-13T00:42:49.939Z, 34.59
2023-05-13T00:43:49.894Z, 34.59
2023-05-13T00:44:49.975Z, 34.58
2023-05-13T00:45:49.996Z, 34.60
2023-05-13T00:46:50.021Z, 34.56
2023-05-13T00:47:50.038Z, 34.55
2023-05-13T00:48:49.997Z, 34.57
2023-05-13T00:49:50.025Z, 34.60
2023-05-13T00:50:50.015Z, 34.61
2023-05-13T00:51:50.106Z, 34.61
2023-05-13T00:52:50.072Z, 34.61
2023-05-13T00:53:50.108Z, 34.57
2023-05-13T00:54:50.071Z, 34.53
2023-05-13T00:55:50.095Z, 34.55
2023-05-13T00:56:50.095Z, 34.59
2023-05-13T00:57:50.092Z, 34.58
2023-05-13T00:58:50.134Z, 34.58
2023-05-13T00:59:50.129Z, 34.54
2023-05-13T01:00:50.208Z, 34.52
2023-05-13T01:01:50.157Z, 34.50
2023-05-13T01:02:50.356Z, 34.49
2023-05-13T01:03:50.167Z, 34.49
2023-05-13T01:04:50.182Z, 34.45
2023-05-13T01:05:50.177Z, 34.49
2023-05-13T01:06:50.185Z, 34.49
2023-05-13T01:07:50.210Z, 34.43
2023-05-13T01:08:50.210Z, 34.39
2023-05-13T01:09:50.300Z, 34.34
2023-05-13T01:10:50.279Z, 34.38
2023-05-13T01:11:50.305Z, 34.41
2023-05-13T01:12:50.277Z, 34.39
2023-05-13T01:13:50.351Z, 34.36
2023-05-13T01:14:50.311Z, 34.39
2023-05-13T01:15:50.320Z, 34.39
2023-05-13T01:16:50.386Z, 34.43
2023-05-13T01:17:50.354Z, 34.39
2023-05-13T01:18:50.358Z, 34.37
2023-05-13T01:19:50.353Z, 34.36
2023-05-13T01:20:50.444Z, 34.36
2023-05-13T01:21:50.441Z, 34.38
2023-05-13T01:22:50.422Z, 34.38
2023-05-13T01:23:50.423Z, 34.35
2023-05-13T01:24:50.459Z, 34.37
2023-05-13T01:25:50.503Z, 34.34
2023-05-13T01:26:50.472Z, 34.33
2023-05-13T01:27:50.500Z, 34.31
2023-05-13T01:28:50.495Z, 34.33
2023-05-13T01:29:50.490Z, 34.34
2023-05-13T01:30:50.528Z, 34.33
2023-05-13T01:31:50.561Z, 34.30
2023-05-13T01:32:50.593Z, 34.30
2023-05-13T01:33:50.541Z, 34.29
2023-05-13T01:34:50.665Z, 34.32
2023-05-13T01:35:50.596Z, 34.31
2023-05-13T01:36:50.639Z, 34.28
2023-05-13T01:37:50.604Z, 34.27
2023-05-13T01:38:50.644Z, 34.26
2023-05-13T01:39:50.634Z, 34.24
2023-05-13T01:40:50.636Z, 34.24
2023-05-13T01:41:50.712Z, 34.25
2023-05-13T01:42:50.692Z, 34.24
2023-05-13T01:43:50.691Z, 34.23
2023-05-13T01:44:50.679Z, 34.22
2023-05-13T01:45:50.763Z, 34.23
2023-05-13T01:46:50.936Z, 34.24
2023-05-13T01:47:50.828Z, 34.20
2023-05-13T01:48:50.753Z, 34.18
2023-05-13T01:49:50.808Z, 34.19
2023-05-13T01:50:50.761Z, 34.21
2023-05-13T01:51:50.751Z, 34.21
2023-05-13T01:52:50.801Z, 34.21
2023-05-13T01:53:50.769Z, 34.18
2023-05-13T01:54:50.836Z, 34.17
2023-05-13T01:55:50.804Z, 34.15
2023-05-13T01:56:50.842Z, 34.15
2023-05-13T01:57:50.845Z, 34.15
2023-05-13T01:58:50.839Z, 34.13
2023-05-13T01:59:50.846Z, 34.14
2023-05-13T02:00:50.857Z, 34.09
2023-05-13T02:01:50.893Z, 34.08
2023-05-13T02:02:50.994Z, 34.09
2023-05-13T02:03:51.022Z, 34.13
2023-05-13T02:04:50.947Z, 34.12
2023-05-13T02:05:50.971Z, 34.08
2023-05-13T02:06:50.961Z, 34.05
2023-05-13T02:07:51.006Z, 34.07
2023-05-13T02:08:51.015Z, 34.07
2023-05-13T02:09:50.984Z, 34.07
2023-05-13T02:10:51.000Z, 34.08
2023-05-13T02:11:51.010Z, 34.07
2023-05-13T02:12:51.087Z, 34.05
2023-05-13T02:13:51.058Z, 34.05
2023-05-13T02:14:51.095Z, 34.05
2023-05-13T02:15:51.077Z, 34.02
2023-05-13T02:16:51.215Z, 34.01
2023-05-13T02:17:51.151Z, 33.96
2023-05-13T02:18:51.159Z, 33.97
2023-05-13T02:19:51.162Z, 34.01
2023-05-13T02:20:51.112Z, 34.01
2023-05-13T02:21:51.200Z, 33.99
2023-05-13T02:22:51.168Z, 33.96
2023-05-13T02:23:51.209Z, 33.96
2023-05-13T02:24:51.179Z, 33.96
2023-05-13T02:25:51.260Z, 33.94
2023-05-13T02:26:51.212Z, 33.92
2023-05-13T02:27:51.301Z, 33.90
2023-05-13T02:28:51.259Z, 33.91
2023-05-13T02:29:51.273Z, 33.94
2023-05-13T02:30:51.258Z, 33.94
2023-05-13T02:31:51.292Z, 33.92
2023-05-13T02:32:51.289Z, 33.93
2023-05-13T02:33:51.376Z, 33.91
2023-05-13T02:34:51.379Z, 33.92
2023-05-13T02:35:51.350Z, 33.88
2023-05-13T02:36:51.416Z, 33.88
2023-05-13T02:37:51.367Z, 33.87
2023-05-13T02:38:51.373Z, 33.85
2023-05-13T02:39:51.438Z, 33.85
2023-05-13T02:40:51.419Z, 33.85
2023-05-13T02:41:51.437Z, 33.87
2023-05-13T02:42:51.417Z, 33.88
2023-05-13T02:43:51.446Z, 33.85
2023-05-13T02:44:51.434Z, 33.84
2023-05-13T02:45:51.484Z, 33.84
2023-05-13T02:46:51.465Z, 33.83
2023-05-13T02:47:51.512Z, 33.81
2023-05-13T02:48:51.446Z, 33.83
2023-05-13T02:49:51.458Z, 33.81
2023-05-13T02:50:51.567Z, 33.75
2023-05-13T02:51:51.543Z, 33.72
2023-05-13T02:52:51.554Z, 33.72
2023-05-13T02:53:51.549Z, 33.73
2023-05-13T02:54:51.556Z, 33.71
2023-05-13T02:55:51.558Z, 33.75
2023-05-13T02:56:51.568Z, 33.74
2023-05-13T02:57:51.565Z, 33.72
2023-05-13T02:58:51.569Z, 33.68
2023-05-13T02:59:51.660Z, 33.68
2023-05-13T03:00:51.637Z, 33.67
2023-05-13T03:01:51.842Z, 33.65
2023-05-13T03:02:51.697Z, 33.67
2023-05-13T03:03:51.649Z, 33.66
2023-05-13T03:04:51.662Z, 33.68
2023-05-13T03:05:51.713Z, 33.66
2023-05-13T03:06:51.690Z, 33.69
2023-05-13T03:07:51.702Z, 33.68
2023-05-13T03:08:51.797Z, 33.68
2023-05-13T03:09:51.758Z, 33.66
2023-05-13T03:10:51.808Z, 33.65
2023-05-13T03:11:51.794Z, 33.68
2023-05-13T03:12:51.788Z, 33.67
2023-05-13T03:13:51.828Z, 33.65
2023-05-13T03:14:51.799Z, 33.65
2023-05-13T03:15:51.892Z, 33.68
2023-05-13T03:16:51.823Z, 33.69
2023-05-13T03:17:51.917Z, 33.68
2023-05-13T03:18:51.933Z, 33.65
2023-05-13T03:19:51.905Z, 33.66
2023-05-13T03:20:51.898Z, 33.65
2023-05-13T03:21:51.902Z, 33.60
2023-05-13T03:22:51.895Z, 33.61
2023-05-13T03:23:51.909Z, 33.59
2023-05-13T03:24:51.927Z, 33.56
2023-05-13T03:25:51.926Z, 33.60
2023-05-13T03:26:51.952Z, 33.61
2023-05-13T03:27:51.967Z, 33.59
2023-05-13T03:28:52.035Z, 33.60
2023-05-13T03:29:52.021Z, 33.57
2023-05-13T03:30:52.104Z, 33.56
2023-05-13T03:31:52.140Z, 34.07
2023-05-13T03:32:52.120Z, 34.90
2023-05-13T03:33:52.074Z, 35.65
2023-05-13T03:34:52.065Z, 36.12
2023-05-13T03:35:52.082Z, 36.38
2023-05-13T03:36:52.076Z, 36.55
2023-05-13T03:37:52.073Z, 36.66
2023-05-13T03:38:52.097Z, 36.75
2023-05-13T03:39:52.134Z, 36.80
2023-05-13T03:40:52.112Z, 36.86
2023-05-13T03:41:52.180Z, 36.90
2023-05-13T03:42:52.164Z, 36.95
2023-05-13T03:43:52.405Z, 36.98
2023-05-13T03:44:52.172Z, 37.03
2023-05-13T03:45:52.182Z, 37.08
2023-05-13T03:46:52.245Z, 37.11
2023-05-13T03:47:52.250Z, 37.17
2023-05-13T03:48:52.238Z, 37.21
2023-05-13T03:49:52.220Z, 37.27
2023-05-13T03:50:52.314Z, 37.32
2023-05-13T03:51:52.287Z, 37.35
2023-05-13T03:52:52.289Z, 37.43
2023-05-13T03:53:52.284Z, 37.46
2023-05-13T03:54:52.347Z, 37.46
2023-05-13T03:55:52.322Z, 37.46
2023-05-13T03:56:52.323Z, 37.43
2023-05-13T03:57:52.380Z, 37.42
2023-05-13T03:58:52.331Z, 37.41
2023-05-13T03:59:52.441Z, 37.43
2023-05-13T04:00:52.380Z, 37.36
2023-05-13T04:01:52.467Z, 39.93
2023-05-13T04:02:52.509Z, 48.38
2023-05-13T04:03:52.382Z, 51.38
2023-05-13T04:04:52.445Z, 53.77
2023-05-13T04:05:52.438Z, 56.77
2023-05-13T04:06:52.451Z, 60.16
2023-05-13T04:07:52.457Z, 67.89
2023-05-13T04:08:52.524Z, 54.42
2023-05-13T04:09:52.488Z, 53.09
2023-05-13T04:10:52.491Z, 54.27
2023-05-13T04:11:52.500Z, 55.66
2023-05-13T04:12:52.525Z, 58.80
2023-05-13T04:13:52.590Z, 66.01
2023-05-13T04:14:52.593Z, 63.61
2023-05-13T04:15:52.618Z, 54.29
2023-05-13T04:16:52.727Z, 54.23
2023-05-13T04:17:52.684Z, 55.47
2023-05-13T04:18:52.682Z, 57.41
2023-05-13T04:19:52.638Z, 60.93
2023-05-13T04:20:52.638Z, 68.71
2023-05-13T04:21:52.692Z, 58.02
2023-05-13T04:22:52.660Z, 54.27
2023-05-13T04:23:52.749Z, 54.88
2023-05-13T04:24:52.713Z, 55.39
2023-05-13T04:25:52.739Z, 56.20
2023-05-13T04:26:52.714Z, 57.21
2023-05-13T04:27:52.712Z, 57.32
2023-05-13T04:28:52.712Z, 57.29
2023-05-13T04:29:52.728Z, 57.46
2023-05-13T04:30:52.732Z, 57.33
2023-05-13T04:31:52.775Z, 56.77
2023-05-13T04:32:52.823Z, 56.09
2023-05-13T04:33:52.761Z, 55.60
2023-05-13T04:34:52.790Z, 55.14
2023-05-13T04:35:52.799Z, 54.74
2023-05-13T04:36:52.865Z, 54.32
2023-05-13T04:37:52.882Z, 54.02
2023-05-13T04:38:52.833Z, 53.73
2023-05-13T04:39:52.906Z, 53.43
2023-05-13T04:40:52.906Z, 53.18
2023-05-13T04:41:52.937Z, 52.96
2023-05-13T04:42:52.923Z, 52.79
2023-05-13T04:43:52.917Z, 52.61
2023-05-13T04:44:52.947Z, 52.43
2023-05-13T04:45:52.955Z, 52.22
2023-05-13T04:46:52.958Z, 52.01
2023-05-13T04:47:53.676Z, 51.84
2023-05-13T04:48:52.984Z, 51.69
2023-05-13T04:49:52.953Z, 51.53
2023-05-13T04:50:52.983Z, 51.39
2023-05-13T04:51:53.019Z, 51.23
2023-05-13T04:52:53.013Z, 51.08
2023-05-13T04:53:53.023Z, 50.95
2023-05-13T04:54:53.012Z, 50.79
2023-05-13T04:55:53.029Z, 50.59
2023-05-13T04:56:53.052Z, 50.42
2023-05-13T04:57:53.060Z, 50.27
2023-05-13T04:58:53.130Z, 50.17
2023-05-13T04:59:53.090Z, 50.08
2023-05-13T05:00:53.136Z, 49.94
2023-05-13T05:01:53.155Z, 49.80
2023-05-13T05:02:53.209Z, 49.67
2023-05-13T05:03:53.284Z, 49.54
2023-05-13T05:04:53.202Z, 49.40
2023-05-13T05:05:53.233Z, 49.32
2023-05-13T05:06:53.203Z, 49.16
2023-05-13T05:07:53.192Z, 49.05
2023-05-13T05:08:53.235Z, 48.92
2023-05-13T05:09:53.205Z, 48.87
2023-05-13T05:10:53.279Z, 48.75
2023-05-13T05:11:53.270Z, 48.65
2023-05-13T05:12:53.369Z, 48.49
2023-05-13T05:13:53.288Z, 48.42
2023-05-13T05:14:53.369Z, 48.32
2023-05-13T05:15:53.327Z, 48.25
2023-05-13T05:16:53.339Z, 48.15
2023-05-13T05:17:53.371Z, 48.30
2023-05-13T05:18:53.450Z, 48.41
2023-05-13T05:19:53.387Z, 48.28
2023-05-13T05:20:53.368Z, 48.08
2023-05-13T05:21:53.429Z, 47.98
2023-05-13T05:22:53.386Z, 47.88
2023-05-13T05:23:53.396Z, 47.78
2023-05-13T05:24:53.489Z, 47.67
2023-05-13T05:26:04.060Z, 47.53
2023-05-13T05:26:53.496Z, 47.46
2023-05-13T05:27:53.475Z, 47.36
2023-05-13T05:28:53.544Z, 47.27
2023-05-13T05:29:53.510Z, 47.20
2023-05-13T05:30:53.537Z, 47.14
2023-05-13T05:31:53.577Z, 47.10
2023-05-13T05:32:53.600Z, 47.02
2023-05-13T05:33:53.559Z, 46.93
2023-05-13T05:34:53.550Z, 46.85
2023-05-13T05:35:53.614Z, 46.78
2023-05-13T05:36:53.615Z, 46.65
2023-05-13T05:37:53.630Z, 46.60
2023-05-13T05:38:53.627Z, 46.48
2023-05-13T05:39:53.611Z, 46.45
2023-05-13T05:40:53.707Z, 46.38
2023-05-13T05:41:53.661Z, 46.36
2023-05-13T05:42:53.691Z, 46.35
2023-05-13T05:43:53.677Z, 46.21
2023-05-13T05:44:53.700Z, 46.14
2023-05-13T05:45:53.763Z, 46.14
2023-05-13T05:46:53.682Z, 46.07
2023-05-13T05:47:53.732Z, 46.07
2023-05-13T05:48:53.682Z, 45.95
2023-05-13T05:49:53.716Z, 45.90
2023-05-13T05:50:53.703Z, 45.85
2023-05-13T05:51:53.726Z, 45.83
2023-05-13T05:52:53.739Z, 45.78
2023-05-13T05:53:53.775Z, 45.75
2023-05-13T05:54:53.861Z, 45.70
2023-05-13T05:55:53.828Z, 45.61
2023-05-13T05:56:53.827Z, 45.59
2023-05-13T05:57:53.829Z, 45.52
2023-05-13T05:58:53.830Z, 45.48
2023-05-13T05:59:53.837Z, 45.47
2023-05-13T06:00:53.838Z, 45.45
2023-05-13T06:01:53.867Z, 45.42
2023-05-13T06:02:54.000Z, 45.37
2023-05-13T06:03:55.012Z, 45.35
2023-05-13T06:04:53.896Z, 45.36
2023-05-13T06:05:53.926Z, 45.34
2023-05-13T06:06:53.955Z, 45.31
2023-05-13T06:07:53.908Z, 45.27
2023-05-13T06:08:54.001Z, 45.18
2023-05-13T06:09:53.971Z, 45.22
2023-05-13T06:10:54.043Z, 45.12
2023-05-13T06:11:54.021Z, 45.02
2023-05-13T06:12:54.008Z, 44.99
2023-05-13T06:13:54.030Z, 44.99
2023-05-13T06:14:54.001Z, 44.94
2023-05-13T06:15:54.087Z, 44.89
2023-05-13T06:16:55.720Z, 44.87
2023-05-13T06:17:54.195Z, 44.85
2023-05-13T06:18:54.132Z, 44.80
2023-05-13T06:19:54.107Z, 44.72
2023-05-13T06:20:54.102Z, 44.73
2023-05-13T06:21:54.261Z, 44.72
2023-05-13T06:22:54.150Z, 44.65
2023-05-13T06:23:54.139Z, 44.58
2023-05-13T06:24:54.192Z, 44.55
2023-05-13T06:25:54.177Z, 44.53
2023-05-13T06:26:54.240Z, 44.53
2023-05-13T06:27:54.206Z, 44.46
2023-05-13T06:28:54.205Z, 44.44
2023-05-13T06:29:54.271Z, 44.43
2023-05-13T06:30:54.305Z, 44.38
2023-05-13T06:31:54.295Z, 44.34
2023-05-13T06:33:01.694Z, 44.31
2023-05-13T06:33:54.299Z, 44.28
2023-05-13T06:34:55.796Z, 44.29
2023-05-13T06:35:54.327Z, 44.31
2023-05-13T06:36:54.293Z, 44.25
2023-05-13T06:37:54.318Z, 44.19
2023-05-13T06:38:54.315Z, 44.16
2023-05-13T06:39:54.328Z, 44.09
2023-05-13T06:40:54.436Z, 44.05
2023-05-13T06:41:54.376Z, 44.03
2023-05-13T06:42:54.389Z, 44.03
2023-05-13T06:43:54.402Z, 44.03
2023-05-13T06:44:54.479Z, 44.00
2023-05-13T06:45:54.436Z, 44.03
2023-05-13T06:46:54.508Z, 44.01
2023-05-13T06:47:54.492Z, 43.97
2023-05-13T06:48:54.442Z, 44.00
2023-05-13T06:49:54.452Z, 43.94
2023-05-13T06:50:54.464Z, 43.95
2023-05-13T06:51:54.512Z, 43.93
2023-05-13T06:52:54.470Z, 43.88
2023-05-13T06:53:54.550Z, 43.87
2023-05-13T06:54:54.547Z, 43.82
2023-05-13T06:55:54.546Z, 43.80
2023-05-13T06:56:54.540Z, 43.83
2023-05-13T06:57:54.548Z, 43.83
2023-05-13T06:58:54.551Z, 43.81
2023-05-13T06:59:54.576Z, 43.78
2023-05-13T07:00:54.626Z, 43.71
2023-05-13T07:01:54.578Z, 43.67
2023-05-13T07:02:54.670Z, 43.62
2023-05-13T07:03:54.679Z, 43.64
2023-05-13T07:04:54.639Z, 43.59
2023-05-13T07:05:54.632Z, 43.54
2023-05-13T07:06:54.756Z, 43.49
2023-05-13T07:07:54.709Z, 43.53
2023-05-13T07:08:54.695Z, 43.49
2023-05-13T07:09:54.716Z, 43.45
2023-05-13T07:10:54.696Z, 43.42
2023-05-13T07:11:54.786Z, 43.40
2023-05-13T07:12:54.758Z, 43.36
2023-05-13T07:13:54.755Z, 43.39
2023-05-13T07:14:54.751Z, 43.37
2023-05-13T07:15:54.753Z, 43.35
2023-05-13T07:16:54.888Z, 43.34
2023-05-13T07:17:54.824Z, 43.33
2023-05-13T07:18:54.935Z, 43.33
2023-05-13T07:19:54.861Z, 43.37
2023-05-13T07:20:54.861Z, 43.27
2023-05-13T07:21:54.856Z, 43.27
2023-05-13T07:22:54.831Z, 43.26
2023-05-13T07:23:54.910Z, 43.20
2023-05-13T07:24:54.897Z, 43.16
2023-05-13T07:25:54.912Z, 43.17
2023-05-13T07:26:54.880Z, 43.11
2023-05-13T07:27:54.957Z, 43.07
2023-05-13T07:28:54.919Z, 43.11
2023-05-13T07:29:54.932Z, 43.17
2023-05-13T07:30:55.007Z, 43.13
2023-05-13T07:31:54.918Z, 43.11
2023-05-13T07:32:55.063Z, 43.06
2023-05-13T07:33:54.987Z, 43.00
2023-05-13T07:34:55.051Z, 43.00
2023-05-13T07:35:55.032Z, 42.94
2023-05-13T07:36:55.025Z, 42.91
2023-05-13T07:37:55.021Z, 42.92
2023-05-13T07:38:55.034Z, 42.89
2023-05-13T07:39:55.046Z, 42.86
2023-05-13T07:40:55.062Z, 42.82
2023-05-13T07:41:55.077Z, 42.86
2023-05-13T07:42:55.076Z, 42.79
2023-05-13T07:43:55.147Z, 42.75
2023-05-13T07:44:55.140Z, 42.72
2023-05-13T07:45:55.202Z, 42.72
2023-05-13T07:46:55.190Z, 42.68
2023-05-13T07:47:55.181Z, 42.72
2023-05-13T07:48:55.173Z, 42.70
2023-05-13T07:49:55.177Z, 42.67
2023-05-13T07:50:55.254Z, 42.61
2023-05-13T07:51:55.212Z, 42.58
2023-05-13T07:52:55.248Z, 42.50
2023-05-13T07:53:55.224Z, 42.52
2023-05-13T07:54:55.314Z, 42.47
2023-05-13T07:55:55.301Z, 42.48
2023-05-13T07:56:55.295Z, 42.52
2023-05-13T07:57:55.314Z, 42.47
2023-05-13T07:58:55.302Z, 42.47
2023-05-13T07:59:55.361Z, 42.41
2023-05-13T08:00:55.334Z, 42.39
2023-05-13T08:01:55.335Z, 42.34
2023-05-13T08:02:55.433Z, 42.30
2023-05-13T08:03:55.593Z, 42.29
2023-05-13T08:04:55.418Z, 42.33
2023-05-13T08:05:55.369Z, 42.31
2023-05-13T08:06:55.450Z, 42.36
2023-05-13T08:07:55.425Z, 42.30
2023-05-13T08:08:55.444Z, 42.25
2023-05-13T08:09:55.476Z, 42.23
2023-05-13T08:10:55.463Z, 42.24
2023-05-13T08:11:55.473Z, 42.27
2023-05-13T08:12:55.471Z, 42.25
2023-05-13T08:13:55.480Z, 42.17
2023-05-13T08:14:55.533Z, 42.21
2023-05-13T08:15:55.551Z, 42.22
2023-05-13T08:16:55.639Z, 42.19
2023-05-13T08:17:55.593Z, 42.12
2023-05-13T08:18:55.680Z, 42.11
2023-05-13T08:19:55.560Z, 42.07
2023-05-13T08:20:55.615Z, 41.97
2023-05-13T08:21:55.597Z, 41.95
2023-05-13T08:22:55.567Z, 42.01
2023-05-13T08:23:55.697Z, 42.03
2023-05-13T08:24:55.633Z, 42.03
2023-05-13T08:25:55.644Z, 42.03
2023-05-13T08:26:55.655Z, 42.01
2023-05-13T08:27:55.704Z, 41.96
2023-05-13T08:28:55.675Z, 41.99
2023-05-13T08:29:55.676Z, 41.98
2023-05-13T08:30:55.676Z, 41.95
2023-05-13T08:31:55.728Z, 41.91
2023-05-13T08:32:55.717Z, 41.93
2023-05-13T08:33:55.815Z, 41.82
2023-05-13T08:34:55.788Z, 41.82
2023-05-13T08:35:55.779Z, 41.79
2023-05-13T08:36:55.798Z, 41.76
2023-05-13T08:37:55.774Z, 41.75
2023-05-13T08:38:55.782Z, 41.74
2023-05-13T08:39:55.825Z, 41.76
2023-05-13T08:40:55.817Z, 41.71
2023-05-13T08:41:55.808Z, 41.74
2023-05-13T08:42:55.825Z, 41.74
2023-05-13T08:43:55.802Z, 41.74
2023-05-13T08:44:55.880Z, 41.73
2023-05-13T08:45:55.898Z, 41.78
2023-05-13T08:46:55.905Z, 41.70
2023-05-13T08:47:55.922Z, 41.66
2023-05-13T08:48:55.954Z, 41.61
2023-05-13T08:49:55.912Z, 41.62
2023-05-13T08:50:55.958Z, 41.59
2023-05-13T08:51:55.944Z, 41.60
2023-05-13T08:52:55.955Z, 41.56
2023-05-13T08:53:55.936Z, 41.64
2023-05-13T08:54:55.945Z, 41.61
2023-05-13T08:55:55.985Z, 41.55
2023-05-13T08:56:55.986Z, 41.56
2023-05-13T08:57:56.001Z, 41.51
2023-05-13T08:58:56.054Z, 41.53
2023-05-13T08:59:56.019Z, 41.49
2023-05-13T09:00:56.102Z, 41.43
2023-05-13T09:01:56.024Z, 41.43
2023-05-13T09:02:56.199Z, 41.41
2023-05-13T09:03:56.089Z, 41.40
2023-05-13T09:04:56.258Z, 41.42
2023-05-13T09:05:56.097Z, 41.39
2023-05-13T09:06:56.097Z, 41.38
2023-05-13T09:07:56.099Z, 41.33
2023-05-13T09:08:56.111Z, 41.30
2023-05-13T09:09:56.223Z, 41.27
2023-05-13T09:10:56.232Z, 41.26
2023-05-13T09:11:56.170Z, 41.24
2023-05-13T09:12:56.226Z, 41.19
2023-05-13T09:13:56.221Z, 41.15
2023-05-13T09:14:56.263Z, 41.20
2023-05-13T09:15:56.296Z, 41.13
2023-05-13T09:16:56.301Z, 41.10
2023-05-13T09:17:56.364Z, 41.14
2023-05-13T09:18:56.378Z, 41.07
2023-05-13T09:19:56.347Z, 41.06
2023-05-13T09:20:56.274Z, 41.08
2023-05-13T09:21:56.289Z, 41.07
2023-05-13T09:22:56.339Z, 41.02
2023-05-13T09:23:56.321Z, 40.98
2023-05-13T09:24:56.328Z, 40.98
2023-05-13T09:25:56.332Z, 41.02
2023-05-13T09:26:56.339Z, 41.03
2023-05-13T09:27:56.430Z, 41.04
2023-05-13T09:28:56.384Z, 40.99
2023-05-13T09:29:56.383Z, 40.95
2023-05-13T09:30:56.445Z, 40.94
2023-05-13T09:31:56.389Z, 40.87
2023-05-13T09:32:56.504Z, 40.88
2023-05-13T09:33:56.440Z, 40.79
2023-05-13T09:34:56.487Z, 40.75
2023-05-13T09:35:56.467Z, 40.77
2023-05-13T09:36:56.495Z, 40.74
2023-05-13T09:37:56.481Z, 40.71
2023-05-13T09:38:56.483Z, 40.79
2023-05-13T09:39:56.483Z, 40.77
2023-05-13T09:40:56.529Z, 40.70
2023-05-13T09:41:56.524Z, 40.69
2023-05-13T09:42:56.515Z, 40.71
2023-05-13T09:43:56.600Z, 40.72
2023-05-13T09:44:56.575Z, 40.69
2023-05-13T09:45:56.579Z, 40.67
2023-05-13T09:46:56.639Z, 40.68
2023-05-13T09:47:56.638Z, 40.68
2023-05-13T09:48:57.140Z, 40.63
2023-05-13T09:49:56.636Z, 40.64
2023-05-13T09:50:56.615Z, 40.57
2023-05-13T09:51:56.624Z, 40.56
2023-05-13T09:52:56.669Z, 40.60
2023-05-13T09:53:56.653Z, 40.57
2023-05-13T09:54:56.666Z, 40.53
2023-05-13T09:55:56.696Z, 40.52
2023-05-13T09:56:56.674Z, 40.48
2023-05-13T09:57:56.705Z, 40.42
2023-05-13T09:58:56.732Z, 40.41
2023-05-13T09:59:56.776Z, 40.34
2023-05-13T10:00:56.779Z, 40.41
2023-05-13T10:01:56.744Z, 41.32
2023-05-13T10:02:56.860Z, 42.14
2023-05-13T10:03:56.820Z, 42.48
2023-05-13T10:04:56.847Z, 42.56
2023-05-13T10:05:56.829Z, 42.55
2023-05-13T10:06:56.831Z, 42.51
2023-05-13T10:07:56.840Z, 42.49
2023-05-13T10:08:56.858Z, 42.45
2023-05-13T10:09:56.930Z, 42.40
2023-05-13T10:10:56.889Z, 42.39
2023-05-13T10:11:56.958Z, 42.38
2023-05-13T10:12:56.931Z, 42.33
2023-05-13T10:13:57.008Z, 42.30
2023-05-13T10:14:56.979Z, 42.28
2023-05-13T10:15:57.018Z, 42.26
2023-05-13T10:16:57.115Z, 42.23
2023-05-13T10:17:57.004Z, 42.20
2023-05-13T10:18:57.098Z, 42.17
2023-05-13T10:19:56.990Z, 42.12
2023-05-13T10:20:57.074Z, 42.09
2023-05-13T10:21:57.033Z, 41.99
2023-05-13T10:22:57.033Z, 41.86
2023-05-13T10:23:57.039Z, 41.75
2023-05-13T10:24:57.055Z, 41.62
2023-05-13T10:25:57.052Z, 41.49
2023-05-13T10:26:57.069Z, 41.35
2023-05-13T10:27:57.069Z, 41.19
2023-05-13T10:28:57.096Z, 41.09
2023-05-13T10:29:57.106Z, 40.98
2023-05-13T10:30:57.177Z, 40.90
2023-05-13T10:31:57.270Z, 40.71
2023-05-13T10:32:57.220Z, 40.62
2023-05-13T10:33:57.236Z, 40.56
2023-05-13T10:34:57.219Z, 40.38
2023-05-13T10:35:57.221Z, 40.16
2023-05-13T10:36:57.209Z, 39.97
2023-05-13T10:37:57.210Z, 39.79
2023-05-13T10:38:57.302Z, 39.67
2023-05-13T10:39:57.262Z, 39.53
2023-05-13T10:40:57.326Z, 39.44
2023-05-13T10:41:57.294Z, 39.33
2023-05-13T10:42:57.347Z, 39.27
2023-05-13T10:43:57.326Z, 39.19
2023-05-13T10:44:57.328Z, 39.08
2023-05-13T10:45:57.410Z, 39.03
2023-05-13T10:46:57.329Z, 38.99
2023-05-13T10:47:57.425Z, 38.94
2023-05-13T10:48:57.333Z, 38.87
2023-05-13T10:49:57.401Z, 38.75
2023-05-13T10:50:57.396Z, 38.70
2023-05-13T10:51:57.413Z, 38.64
2023-05-13T10:52:57.410Z, 38.60
2023-05-13T10:53:57.403Z, 38.56
2023-05-13T10:54:57.399Z, 38.51
2023-05-13T10:55:57.413Z, 38.48
2023-05-13T10:56:57.419Z, 38.38
2023-05-13T10:57:57.423Z, 38.34
2023-05-13T10:58:57.444Z, 38.31
2023-05-13T10:59:57.461Z, 38.27
2023-05-13T11:00:57.542Z, 38.25
2023-05-13T11:01:57.558Z, 38.22
2023-05-13T11:02:57.548Z, 38.15
2023-05-13T11:03:57.769Z, 38.13
2023-05-13T11:04:57.541Z, 38.12
2023-05-13T11:05:57.545Z, 38.03
2023-05-13T11:06:57.606Z, 38.04
2023-05-13T11:07:57.587Z, 38.03
2023-05-13T11:08:57.631Z, 37.99
2023-05-13T11:09:57.617Z, 37.91
2023-05-13T11:10:57.614Z, 37.94
2023-05-13T11:11:57.620Z, 37.87
2023-05-13T11:12:57.614Z, 37.84
2023-05-13T11:13:57.740Z, 37.83
2023-05-13T11:14:57.623Z, 37.83
2023-05-13T11:15:57.810Z, 37.81
2023-05-13T11:16:57.678Z, 37.78
2023-05-13T11:17:57.829Z, 37.77
2023-05-13T11:18:57.765Z, 37.75
2023-05-13T11:19:57.712Z, 37.70
2023-05-13T11:20:57.776Z, 37.64
2023-05-13T11:21:57.747Z, 37.64
2023-05-13T11:22:57.812Z, 37.64
2023-05-13T11:23:57.779Z, 37.65
2023-05-13T11:24:57.822Z, 37.65
2023-05-13T11:25:57.800Z, 37.58
2023-05-13T11:26:57.815Z, 37.55
2023-05-13T11:27:57.810Z, 37.55
2023-05-13T11:28:57.914Z, 37.49
2023-05-13T11:29:57.879Z, 37.49
2023-05-13T11:30:57.914Z, 37.51
2023-05-13T11:32:00.021Z, 37.46
2023-05-13T11:32:57.904Z, 37.46
2023-05-13T11:33:57.961Z, 37.47
2023-05-13T11:34:57.933Z, 37.39
2023-05-13T11:35:57.975Z, 37.36
2023-05-13T11:36:57.931Z, 37.37
2023-05-13T11:37:59.988Z, 37.36
2023-05-13T11:38:58.015Z, 37.31
2023-05-13T11:39:57.981Z, 37.28
2023-05-13T11:40:57.970Z, 37.29
2023-05-13T11:41:57.973Z, 37.27
2023-05-13T11:42:57.980Z, 37.24
2023-05-13T11:43:58.074Z, 37.22
2023-05-13T11:44:58.034Z, 37.20
2023-05-13T11:45:58.121Z, 37.19
2023-05-13T11:46:58.087Z, 37.23
2023-05-13T11:47:58.231Z, 37.22
2023-05-13T11:48:58.086Z, 37.21
2023-05-13T11:49:58.081Z, 37.22
2023-05-13T11:50:58.181Z, 37.18
2023-05-13T11:51:58.149Z, 37.17
2023-05-13T11:52:58.155Z, 37.17
2023-05-13T11:53:58.183Z, 37.16
2023-05-13T11:54:58.184Z, 37.18
2023-05-13T11:55:58.191Z, 37.15
2023-05-13T11:56:58.188Z, 37.09
2023-05-13T11:57:58.229Z, 37.09
2023-05-13T11:58:58.206Z, 37.09
2023-05-13T11:59:58.234Z, 37.09
2023-05-13T12:00:58.240Z, 37.06
2023-05-13T12:01:58.264Z, 37.02
2023-05-13T12:02:58.525Z, 37.02
2023-05-13T12:03:58.248Z, 37.03
2023-05-13T12:04:58.279Z, 37.03
2023-05-13T12:05:58.283Z, 37.00
2023-05-13T12:06:58.309Z, 37.00
2023-05-13T12:07:58.574Z, 36.97
2023-05-13T12:08:58.370Z, 36.98
2023-05-13T12:09:58.365Z, 36.96
2023-05-13T12:10:58.407Z, 36.89
2023-05-13T12:11:58.387Z, 36.89
2023-05-13T12:12:58.384Z, 36.89
2023-05-13T12:13:58.457Z, 36.88
2023-05-13T12:14:58.394Z, 36.86
2023-05-13T12:15:58.520Z, 36.83
2023-05-13T12:16:58.453Z, 36.82
2023-05-13T12:17:58.615Z, 36.81
2023-05-13T12:18:58.500Z, 36.78
2023-05-13T12:19:58.466Z, 36.77
2023-05-13T12:20:58.483Z, 36.80
2023-05-13T12:21:58.487Z, 36.79
2023-05-13T12:22:58.589Z, 36.75
2023-05-13T12:23:58.568Z, 36.78
2023-05-13T12:24:58.598Z, 36.77
2023-05-13T12:25:58.581Z, 36.77
2023-05-13T12:26:58.605Z, 36.73
2023-05-13T12:27:58.594Z, 36.74
2023-05-13T12:28:58.627Z, 36.74